Time;durP1;ratioP1;P1;durP2;ratioP2;P2;SDS_P1;SDS_P2;PMS_P1;PMS_P2;Temp;Humidity;BMP_temperature;BMP_pressure;BME280_temperature;BME280_humidity;BME280_pressure;Samples;Min_cycle;Max_cycle;Signal;HPM_P1;HPM_P2
2021/07/07 00:02:14;;;;;;;;;;;23.50;54.60;;;;;;4977155;28;20479;-64
2021/07/07 00:04:41;;;;;;;;;;;23.40;54.60;;;;;;4979637;28;20340;-64
2021/07/07 00:07:08;;;;;;;;;;;23.50;54.60;;;;;;4981664;28;19959;-65
2021/07/07 00:09:34;;;;;;;;;;;23.50;54.70;;;;;;4984358;28;20090;-65
2021/07/07 00:12:01;;;;;;;;;;;23.40;54.60;;;;;;4988960;28;19925;-65
2021/07/07 00:14:28;;;;;;;;;;;23.40;54.70;;;;;;4982452;28;19952;-65
2021/07/07 00:16:54;;;;;;;;;;;23.40;54.70;;;;;;4986076;28;20542;-65
2021/07/07 00:19:21;;;;;;;;;;;23.40;54.70;;;;;;4977818;28;19926;-65
2021/07/07 00:21:48;;;;;;;;;;;23.40;54.70;;;;;;4983116;28;19940;-65
2021/07/07 00:24:15;;;;;;;;;;;23.40;54.80;;;;;;4984885;28;19921;-65
2021/07/07 00:26:41;;;;;;;;;;;23.40;54.80;;;;;;4977826;28;19962;-65
2021/07/07 00:29:08;;;;;;;;;;;23.40;55.10;;;;;;4981622;28;20262;-65
2021/07/07 00:31:35;;;;;;;;;;;23.30;55.10;;;;;;4980178;28;20555;-65
2021/07/07 00:34:01;;;;;;;;;;;23.30;54.90;;;;;;4980911;28;20006;-65
2021/07/07 00:36:28;;;;;;;;;;;23.30;54.90;;;;;;4975366;28;19977;-65
2021/07/07 00:38:55;;;;;;;;;;;23.30;54.90;;;;;;4973501;28;19958;-65
2021/07/07 00:41:21;;;;;;;;;;;23.30;54.90;;;;;;4978544;28;19947;-65
2021/07/07 00:43:48;;;;;;;;;;;23.30;54.80;;;;;;4989177;28;20511;-65
2021/07/07 00:46:15;;;;;;;;;;;23.30;54.80;;;;;;4977435;28;19948;-64
2021/07/07 00:48:43;;;;;;;;;;;23.30;54.80;;;;;;4982899;28;19943;-65
2021/07/07 00:51:13;;;;;;;;;;;23.30;54.90;;;;;;4981854;28;19956;-65
2021/07/07 00:53:41;;;;;;;;;;;23.30;54.90;;;;;;4979991;28;19937;-65
2021/07/07 00:56:08;;;;;;;;;;;23.30;54.90;;;;;;4975108;28;19949;-65
2021/07/07 00:58:38;;;;;;;;;;;23.30;54.90;;;;;;4987970;28;19928;-65
2021/07/07 01:01:05;;;;;;;;;;;23.30;54.90;;;;;;4982764;28;19944;-64
2021/07/07 01:03:33;;;;;;;;;;;23.30;54.90;;;;;;4971658;28;19929;-64
2021/07/07 01:06:00;;;;;;;;;;;23.20;54.90;;;;;;4984808;28;19944;-65
2021/07/07 01:08:26;;;;;;;;;;;23.20;54.90;;;;;;4987000;28;19929;-65
2021/07/07 01:10:56;;;;;;;;;;;23.20;54.90;;;;;;4987166;28;19932;-65
2021/07/07 01:13:23;;;;;;;;;;;23.20;54.90;;;;;;4978222;28;19958;-64
2021/07/07 01:15:51;;;;;;;;;;;23.20;54.90;;;;;;4983308;28;20013;-65
2021/07/07 01:18:18;;;;;;;;;;;23.20;55.00;;;;;;4985490;28;19925;-65
2021/07/07 01:20:45;;;;;;;;;;;23.20;55.00;;;;;;4978984;28;19922;-65
2021/07/07 01:23:11;;;;;;;;;;;23.20;54.90;;;;;;4987134;28;19929;-65
2021/07/07 01:25:38;;;;;;;;;;;23.20;54.90;;;;;;4984548;28;19958;-65
2021/07/07 01:28:06;;;;;;;;;;;23.20;54.90;;;;;;4985374;28;19965;-65
2021/07/07 01:30:33;;;;;;;;;;;23.20;54.90;;;;;;4976380;28;20423;-64
2021/07/07 01:33:00;;;;;;;;;;;23.20;54.90;;;;;;4987472;28;20083;-64
2021/07/07 01:35:27;;;;;;;;;;;23.20;54.80;;;;;;4986249;28;20437;-64
2021/07/07 01:37:54;;;;;;;;;;;23.10;54.80;;;;;;4987426;28;19993;-64
2021/07/07 01:40:23;;;;;;;;;;;23.10;54.80;;;;;;4981672;28;19954;-65
2021/07/07 01:42:50;;;;;;;;;;;23.10;54.80;;;;;;4978547;28;19966;-65
2021/07/07 01:45:17;;;;;;;;;;;23.10;54.80;;;;;;4981319;28;19984;-65
2021/07/07 01:47:44;;;;;;;;;;;23.10;54.70;;;;;;4985388;28;19948;-64
2021/07/07 01:50:11;;;;;;;;;;;23.20;54.80;;;;;;4979636;28;20387;-64
2021/07/07 01:52:39;;;;;;;;;;;23.10;54.70;;;;;;4989228;28;19926;-64
2021/07/07 01:55:07;;;;;;;;;;;23.10;54.70;;;;;;4987290;28;20253;-64
2021/07/07 01:57:49;;;;;;;;;;;23.10;54.80;;;;;;4973527;28;19937;-65
2021/07/07 02:00:21;;;;;;;;;;;23.10;54.70;;;;;;4987654;28;19922;-65
2021/07/07 02:02:49;;;;;;;;;;;23.10;54.80;;;;;;4984674;28;19953;-65
2021/07/07 02:05:16;;;;;;;;;;;23.10;54.80;;;;;;4981390;28;19922;-65
2021/07/07 02:07:43;;;;;;;;;;;23.10;54.80;;;;;;4985739;28;19922;-65
2021/07/07 02:10:12;;;;;;;;;;;23.10;54.80;;;;;;4988475;28;19937;-64
2021/07/07 02:12:39;;;;;;;;;;;23.10;54.80;;;;;;4989916;28;20279;-65
2021/07/07 02:15:10;;;;;;;;;;;23.10;55.40;;;;;;4984359;28;19921;-65
2021/07/07 02:17:37;;;;;;;;;;;23.00;54.70;;;;;;4983320;28;19946;-65
2021/07/07 02:20:05;;;;;;;;;;;23.10;54.80;;;;;;4979147;28;19948;-64
2021/07/07 02:22:32;;;;;;;;;;;23.00;54.80;;;;;;4981527;28;19944;-65
2021/07/07 02:24:59;;;;;;;;;;;23.00;54.80;;;;;;4989944;28;19952;-66
2021/07/07 02:27:25;;;;;;;;;;;23.00;55.40;;;;;;4982923;28;19953;-65
2021/07/07 02:29:52;;;;;;;;;;;23.00;54.80;;;;;;4976150;28;19955;-66
2021/07/07 02:32:19;;;;;;;;;;;23.00;54.90;;;;;;4987764;28;19986;-65
2021/07/07 02:34:45;;;;;;;;;;;23.00;54.90;;;;;;4983914;28;19922;-65
2021/07/07 02:37:12;;;;;;;;;;;23.00;55.00;;;;;;4980196;28;20386;-65
2021/07/07 02:39:39;;;;;;;;;;;23.00;55.00;;;;;;4987359;28;19921;-65
2021/07/07 02:42:06;;;;;;;;;;;23.00;55.00;;;;;;4985401;28;19939;-65
2021/07/07 02:44:32;;;;;;;;;;;23.00;55.00;;;;;;4988189;28;19960;-65
2021/07/07 02:46:59;;;;;;;;;;;23.00;55.10;;;;;;4980147;28;19965;-65
2021/07/07 02:49:26;;;;;;;;;;;23.00;55.00;;;;;;4977234;28;19942;-65
2021/07/07 02:51:53;;;;;;;;;;;22.90;55.00;;;;;;4984531;28;20642;-65
2021/07/07 02:54:19;;;;;;;;;;;23.00;55.00;;;;;;4981625;28;20358;-64
2021/07/07 02:56:46;;;;;;;;;;;22.90;55.00;;;;;;4988600;28;19932;-65
2021/07/07 02:59:13;;;;;;;;;;;22.90;55.00;;;;;;4979487;28;19952;-64
2021/07/07 03:01:40;;;;;;;;;;;23.00;55.00;;;;;;4983811;28;19953;-64
2021/07/07 03:04:11;;;;;;;;;;;22.90;55.00;;;;;;4973822;28;19926;-64
2021/07/07 03:06:38;;;;;;;;;;;22.90;55.00;;;;;;4978362;28;19943;-65
2021/07/07 03:09:05;;;;;;;;;;;22.90;55.00;;;;;;4986554;28;19958;-64
2021/07/07 03:11:31;;;;;;;;;;;22.90;55.00;;;;;;4972299;28;19945;-65
2021/07/07 03:13:58;;;;;;;;;;;22.90;55.00;;;;;;4979325;28;19961;-64
2021/07/07 03:16:25;;;;;;;;;;;22.90;55.00;;;;;;4982804;28;19968;-65
2021/07/07 03:18:52;;;;;;;;;;;22.90;55.00;;;;;;4976753;28;19946;-65
2021/07/07 03:21:18;;;;;;;;;;;22.90;55.00;;;;;;4980123;28;20437;-64
2021/07/07 03:23:45;;;;;;;;;;;22.90;55.00;;;;;;4985553;28;20391;-64
2021/07/07 03:26:12;;;;;;;;;;;22.90;55.00;;;;;;4987369;28;19978;-64
2021/07/07 03:28:38;;;;;;;;;;;22.90;55.00;;;;;;4985639;28;19926;-65
2021/07/07 03:31:05;;;;;;;;;;;22.90;55.00;;;;;;4978489;28;19963;-64
2021/07/07 03:33:32;;;;;;;;;;;22.80;54.90;;;;;;4981702;28;20562;-65
2021/07/07 03:35:59;;;;;;;;;;;22.90;55.00;;;;;;4985871;28;19940;-65
2021/07/07 03:38:26;;;;;;;;;;;22.90;55.00;;;;;;4979209;28;19944;-64
2021/07/07 03:40:53;;;;;;;;;;;22.80;55.00;;;;;;4980637;28;20487;-64
2021/07/07 03:43:20;;;;;;;;;;;22.80;55.00;;;;;;4981511;28;20360;-64
2021/07/07 03:45:47;;;;;;;;;;;22.80;55.00;;;;;;4978050;28;19944;-67
2021/07/07 03:48:13;;;;;;;;;;;22.80;55.00;;;;;;4983849;28;19988;-65
2021/07/07 03:50:40;;;;;;;;;;;22.80;55.00;;;;;;4972352;28;19951;-64
2021/07/07 03:53:07;;;;;;;;;;;22.80;55.00;;;;;;4977659;28;19926;-64
2021/07/07 03:55:34;;;;;;;;;;;22.80;55.00;;;;;;4984958;28;19945;-64
2021/07/07 03:58:01;;;;;;;;;;;22.80;55.00;;;;;;4974109;28;19928;-64
2021/07/07 04:00:29;;;;;;;;;;;22.80;55.10;;;;;;4981748;28;19952;-64
2021/07/07 04:02:56;;;;;;;;;;;22.80;55.10;;;;;;4979916;28;19933;-65
2021/07/07 04:05:23;;;;;;;;;;;22.80;55.10;;;;;;4987552;28;19940;-64
2021/07/07 04:07:50;;;;;;;;;;;22.80;55.00;;;;;;4981659;28;19942;-64
2021/07/07 04:10:18;;;;;;;;;;;22.80;55.00;;;;;;4988687;28;19929;-64
2021/07/07 04:12:45;;;;;;;;;;;22.80;55.00;;;;;;4986549;28;19935;-65
2021/07/07 04:15:12;;;;;;;;;;;22.80;54.90;;;;;;4986513;28;19933;-64
2021/07/07 04:17:40;;;;;;;;;;;22.80;54.90;;;;;;4989698;28;19938;-65
2021/07/07 04:20:09;;;;;;;;;;;22.80;54.90;;;;;;4983179;28;19960;-65
2021/07/07 04:22:41;;;;;;;;;;;22.80;54.90;;;;;;4987308;28;19947;-65
2021/07/07 04:25:09;;;;;;;;;;;22.80;54.90;;;;;;4986543;28;19959;-65
2021/07/07 04:27:39;;;;;;;;;;;22.80;54.80;;;;;;4982755;28;20352;-65
2021/07/07 04:30:07;;;;;;;;;;;22.80;54.90;;;;;;4972778;28;19959;-65
2021/07/07 04:32:34;;;;;;;;;;;22.80;54.90;;;;;;4974439;28;19965;-67
2021/07/07 04:35:00;;;;;;;;;;;22.80;55.00;;;;;;4981154;28;19956;-67
2021/07/07 04:37:27;;;;;;;;;;;22.80;55.00;;;;;;4973811;28;19970;-65
2021/07/07 04:39:55;;;;;;;;;;;22.80;54.90;;;;;;4981984;28;19995;-65
2021/07/07 04:42:22;;;;;;;;;;;22.90;54.90;;;;;;4980432;28;19962;-65
2021/07/07 04:44:49;;;;;;;;;;;22.90;54.80;;;;;;4986328;28;19947;-65
2021/07/07 04:47:16;;;;;;;;;;;22.90;54.80;;;;;;4982787;28;19936;-65
2021/07/07 04:49:43;;;;;;;;;;;22.90;54.70;;;;;;4974023;28;19963;-65
2021/07/07 04:52:09;;;;;;;;;;;23.00;54.70;;;;;;4981294;28;19955;-65
2021/07/07 04:54:36;;;;;;;;;;;23.00;54.60;;;;;;4992570;28;19961;-65
2021/07/07 04:57:03;;;;;;;;;;;23.00;54.70;;;;;;4978972;28;19991;-65
2021/07/07 04:59:29;;;;;;;;;;;23.00;54.80;;;;;;4980927;28;19925;-65
2021/07/07 05:01:56;;;;;;;;;;;23.00;54.70;;;;;;4985167;28;19922;-64
2021/07/07 05:04:23;;;;;;;;;;;23.10;54.70;;;;;;4988057;28;19966;-64
2021/07/07 05:06:50;;;;;;;;;;;23.10;54.60;;;;;;4989662;28;19941;-64
2021/07/07 05:09:16;;;;;;;;;;;23.10;54.50;;;;;;4983305;28;19954;-64
2021/07/07 05:11:43;;;;;;;;;;;23.10;54.40;;;;;;4988995;28;20042;-65
2021/07/07 05:14:10;;;;;;;;;;;23.00;54.30;;;;;;4987656;28;19962;-65
2021/07/07 05:16:37;;;;;;;;;;;23.00;54.30;;;;;;4982491;28;19958;-64
2021/07/07 05:19:05;;;;;;;;;;;23.00;54.30;;;;;;4986943;28;19958;-65
2021/07/07 05:21:32;;;;;;;;;;;23.00;54.30;;;;;;4989772;28;19952;-64
2021/07/07 05:23:59;;;;;;;;;;;23.00;54.30;;;;;;4986279;28;19942;-64
2021/07/07 05:26:25;;;;;;;;;;;23.00;54.30;;;;;;4980880;28;19921;-64
2021/07/07 05:28:52;;;;;;;;;;;23.00;54.30;;;;;;4984613;28;20098;-64
2021/07/07 05:31:19;;;;;;;;;;;23.00;54.40;;;;;;4984275;28;19922;-64
2021/07/07 05:33:45;;;;;;;;;;;22.90;54.40;;;;;;4978523;28;20007;-64
2021/07/07 05:36:12;;;;;;;;;;;22.90;54.40;;;;;;4979951;28;19948;-65
2021/07/07 05:38:39;;;;;;;;;;;22.90;54.40;;;;;;4987551;28;19972;-65
2021/07/07 05:41:06;;;;;;;;;;;22.90;54.50;;;;;;4984014;28;19944;-65
2021/07/07 05:43:33;;;;;;;;;;;22.90;54.50;;;;;;4985459;28;19953;-65
2021/07/07 05:45:59;;;;;;;;;;;22.90;54.60;;;;;;4991191;28;19976;-65
2021/07/07 05:48:27;;;;;;;;;;;22.90;54.60;;;;;;4982870;28;19944;-65
2021/07/07 05:50:54;;;;;;;;;;;22.90;54.70;;;;;;4974465;28;19973;-65
2021/07/07 05:53:23;;;;;;;;;;;22.90;54.70;;;;;;4987727;28;19922;-65
2021/07/07 05:55:49;;;;;;;;;;;22.90;54.80;;;;;;4987563;28;19959;-64
2021/07/07 05:58:16;;;;;;;;;;;22.90;54.80;;;;;;4980673;28;20438;-64
2021/07/07 06:00:44;;;;;;;;;;;22.90;55.10;;;;;;4983603;28;19957;-64
2021/07/07 06:03:14;;;;;;;;;;;22.90;55.40;;;;;;4979466;28;19926;-63
2021/07/07 06:05:43;;;;;;;;;;;22.90;55.70;;;;;;4982112;28;20383;-64
2021/07/07 06:08:09;;;;;;;;;;;22.90;55.80;;;;;;4981072;28;20725;-64
2021/07/07 06:10:37;;;;;;;;;;;22.90;55.80;;;;;;4989844;28;19957;-65
2021/07/07 06:13:06;;;;;;;;;;;22.90;56.00;;;;;;4982001;28;19948;-64
2021/07/07 06:15:36;;;;;;;;;;;23.00;56.90;;;;;;4983371;28;19954;-67
2021/07/07 06:18:04;;;;;;;;;;;23.00;56.30;;;;;;4979371;28;19943;-66
2021/07/07 06:20:31;;;;;;;;;;;23.00;56.40;;;;;;4983555;28;20285;-67
2021/07/07 06:23:00;;;;;;;;;;;23.00;56.30;;;;;;4979058;28;20062;-67
2021/07/07 06:25:27;;;;;;;;;;;23.10;56.20;;;;;;4979399;28;20032;-65
2021/07/07 06:27:54;;;;;;;;;;;23.10;56.20;;;;;;4987357;28;19945;-64
2021/07/07 06:30:24;;;;;;;;;;;23.10;56.10;;;;;;4993724;28;19942;-66
2021/07/07 06:32:52;;;;;;;;;;;23.10;56.00;;;;;;4969875;28;19940;-64
2021/07/07 06:35:19;;;;;;;;;;;23.20;56.10;;;;;;4987631;28;19967;-65
2021/07/07 06:37:45;;;;;;;;;;;23.20;56.00;;;;;;4981998;28;19956;-63
2021/07/07 06:40:12;;;;;;;;;;;23.20;55.90;;;;;;4986323;28;19944;-63
2021/07/07 06:42:40;;;;;;;;;;;23.20;55.70;;;;;;4987459;28;19960;-65
2021/07/07 06:45:08;;;;;;;;;;;23.20;55.60;;;;;;4983348;28;19941;-63
2021/07/07 06:47:37;;;;;;;;;;;23.30;55.70;;;;;;4990366;28;19938;-63
2021/07/07 06:50:04;;;;;;;;;;;23.30;55.70;;;;;;4983544;28;19940;-64
2021/07/07 06:52:31;;;;;;;;;;;23.30;57.20;;;;;;4985449;28;19944;-64
2021/07/07 06:54:58;;;;;;;;;;;23.30;57.10;;;;;;4990487;28;19969;-65
2021/07/07 06:57:25;;;;;;;;;;;23.30;56.90;;;;;;4982752;28;19937;-65
2021/07/07 06:59:52;;;;;;;;;;;23.30;56.30;;;;;;4988860;28;19949;-66
2021/07/07 07:02:19;;;;;;;;;;;23.40;56.60;;;;;;4984125;28;19936;-68
2021/07/07 07:04:45;;;;;;;;;;;23.40;56.30;;;;;;4985757;28;20624;-67
2021/07/07 07:07:13;;;;;;;;;;;23.50;56.50;;;;;;4984282;28;19971;-65
2021/07/07 07:09:41;;;;;;;;;;;23.50;56.10;;;;;;4984677;28;19945;-65
2021/07/07 07:12:10;;;;;;;;;;;23.50;55.70;;;;;;4979178;28;19958;-65
2021/07/07 07:14:39;;;;;;;;;;;23.50;55.60;;;;;;4984203;28;20475;-68
2021/07/07 07:17:07;;;;;;;;;;;23.60;55.60;;;;;;4984183;28;20300;-65
2021/07/07 07:19:36;;;;;;;;;;;23.60;57.50;;;;;;4982647;28;19930;-65
2021/07/07 07:22:03;;;;;;;;;;;23.60;56.10;;;;;;4982681;28;19957;-65
2021/07/07 07:24:31;;;;;;;;;;;23.70;56.10;;;;;;4976636;28;19964;-65
2021/07/07 07:27:01;;;;;;;;;;;23.70;55.60;;;;;;4980770;28;19949;-65
2021/07/07 07:29:28;;;;;;;;;;;23.70;55.50;;;;;;4979114;28;20651;-66
2021/07/07 07:31:55;;;;;;;;;;;23.70;55.60;;;;;;4988113;28;20297;-66
2021/07/07 07:34:23;;;;;;;;;;;23.70;55.50;;;;;;4981695;28;20456;-65
2021/07/07 07:36:53;;;;;;;;;;;23.80;55.30;;;;;;4980737;28;19940;-65
2021/07/07 07:39:23;;;;;;;;;;;23.80;55.20;;;;;;4987173;28;19948;-63
2021/07/07 07:41:51;;;;;;;;;;;23.80;54.90;;;;;;4983444;28;19952;-65
2021/07/07 07:44:21;;;;;;;;;;;23.80;54.80;;;;;;4983897;28;19941;-66
2021/07/07 07:46:49;;;;;;;;;;;23.90;54.90;;;;;;4977148;28;19940;-67
2021/07/07 07:49:16;;;;;;;;;;;23.90;54.80;;;;;;4982240;28;19944;-65
2021/07/07 07:51:43;;;;;;;;;;;23.90;54.30;;;;;;4977700;28;19948;-64
2021/07/07 07:54:12;;;;;;;;;;;23.80;54.10;;;;;;4985404;28;19940;-64
2021/07/07 07:56:40;;;;;;;;;;;23.80;54.10;;;;;;4984655;28;19949;-65
2021/07/07 07:59:09;;;;;;;;;;;23.80;54.30;;;;;;4986467;28;20255;-65
2021/07/07 08:01:36;;;;;;;;;;;23.80;54.00;;;;;;4982217;28;20460;-64
2021/07/07 08:04:04;;;;;;;;;;;23.80;53.90;;;;;;4979318;28;20321;-64
2021/07/07 08:06:31;;;;;;;;;;;23.80;53.90;;;;;;4981338;28;19957;-65
2021/07/07 08:09:01;;;;;;;;;;;23.80;53.90;;;;;;4982017;28;20285;-65
2021/07/07 08:11:27;;;;;;;;;;;23.80;54.90;;;;;;4979013;28;19955;-65
2021/07/07 08:13:54;;;;;;;;;;;23.80;55.00;;;;;;4981993;28;20370;-66
2021/07/07 08:16:22;;;;;;;;;;;23.90;54.80;;;;;;4974802;28;20065;-65
2021/07/07 08:18:50;;;;;;;;;;;24.00;54.50;;;;;;4978021;28;19922;-65
2021/07/07 08:21:18;;;;;;;;;;;24.00;54.50;;;;;;4979163;28;19930;-65
2021/07/07 08:23:45;;;;;;;;;;;24.00;54.20;;;;;;4983186;28;19922;-66
2021/07/07 08:26:11;;;;;;;;;;;24.10;54.20;;;;;;4982265;28;19932;-66
2021/07/07 08:28:38;;;;;;;;;;;24.10;54.00;;;;;;4974727;28;19948;-65
2021/07/07 08:31:06;;;;;;;;;;;24.10;54.10;;;;;;4979037;28;19922;-67
2021/07/07 08:33:34;;;;;;;;;;;24.20;53.80;;;;;;4984652;28;20347;-68
2021/07/07 08:36:01;;;;;;;;;;;24.20;53.80;;;;;;4987774;28;20003;-66
2021/07/07 08:38:28;;;;;;;;;;;24.20;54.10;;;;;;4986026;28;19958;-65
2021/07/07 08:41:10;;;;;;;;;;;24.20;53.90;;;;;;4987687;28;19960;-65
2021/07/07 08:43:36;;;;;;;;;;;24.10;53.90;;;;;;4990422;28;19999;-66
2021/07/07 08:46:03;;;;;;;;;;;24.20;54.10;;;;;;4991172;28;19958;-66
2021/07/07 08:48:30;;;;;;;;;;;24.20;54.20;;;;;;4987353;28;19961;-66
2021/07/07 08:50:58;;;;;;;;;;;24.20;53.70;;;;;;4987714;28;19937;-66
2021/07/07 08:53:26;;;;;;;;;;;24.20;53.60;;;;;;4989847;28;19957;-65
2021/07/07 08:55:53;;;;;;;;;;;24.20;53.80;;;;;;4982081;28;19951;-65
2021/07/07 08:58:20;;;;;;;;;;;24.20;53.90;;;;;;4985344;28;19952;-64
2021/07/07 09:00:49;;;;;;;;;;;24.20;53.70;;;;;;4981450;28;20412;-65
2021/07/07 09:03:18;;;;;;;;;;;24.20;53.60;;;;;;4990702;28;20012;-66
2021/07/07 09:05:52;;;;;;;;;;;24.20;53.50;;;;;;4986278;28;20274;-66
2021/07/07 09:08:27;;;;;;;;;;;24.20;53.30;;;;;;4978089;28;19926;-66
2021/07/07 09:10:55;;;;;;;;;;;24.10;53.10;;;;;;4987410;28;19926;-65
2021/07/07 09:13:24;;;;;;;;;;;24.10;53.40;;;;;;4988886;28;20608;-64
2021/07/07 09:15:55;;;;;;;;;;;24.10;53.40;;;;;;4989545;28;19922;-67
2021/07/07 09:19:16;;;;;;;6.88;2.67;;;24.20;53.50;;;;;;5064687;28;20437;-66
2021/07/07 09:21:53;;;;;;;4.28;2.35;;;24.30;53.60;;;;;;5060148;28;20490;-65
2021/07/07 09:24:24;;;;;;;7.03;2.28;;;24.30;53.40;;;;;;5044366;28;20823;-66
2021/07/07 09:27:05;;;;;;;4.23;2.17;;;24.40;53.10;;;;;;5062229;28;20479;-66
2021/07/07 09:29:52;;;;;;;4.20;2.30;;;24.50;52.90;;;;;;5066917;28;20391;-67
2021/07/07 09:32:28;;;;;;;4.63;2.07;;;24.50;52.90;;;;;;5065836;28;20448;-67
2021/07/07 09:35:00;;;;;;;5.72;2.20;;;24.60;52.80;;;;;;5060864;28;20413;-69
2021/07/07 09:37:45;;;;;;;6.30;2.33;;;24.60;52.60;;;;;;5060755;28;20410;-71
2021/07/07 09:40:14;;;;;;;9.18;2.22;;;24.60;52.80;;;;;;5062896;28;20391;-67
2021/07/07 09:42:42;;;;;;;5.90;2.28;;;24.70;52.60;;;;;;5060430;28;20396;-67
2021/07/07 09:45:12;;;;;;;4.47;2.10;;;24.70;52.60;;;;;;5063194;28;20198;-67
2021/07/07 09:47:40;;;;;;;4.67;2.00;;;24.80;52.20;;;;;;5060617;28;20214;-67
2021/07/07 09:50:08;;;;;;;3.97;1.90;;;24.80;52.10;;;;;;5064713;28;20209;-68
2021/07/07 09:52:36;;;;;;;4.87;1.90;;;24.90;51.90;;;;;;5054300;28;20198;-68
2021/07/07 09:55:09;;;;;;;4.13;2.00;;;24.90;52.00;;;;;;5064879;28;20206;-66
2021/07/07 09:57:47;;;;;;;3.73;1.70;;;24.90;51.70;;;;;;5060987;28;20224;-67
2021/07/07 10:00:17;;;;;;;3.17;1.87;;;24.90;51.60;;;;;;5057166;28;21096;-68
2021/07/07 10:02:49;;;;;;;5.43;1.90;;;24.90;51.60;;;;;;5049117;28;20198;-69
2021/07/07 10:05:19;;;;;;;4.33;2.20;;;24.90;51.80;;;;;;5058348;28;20346;-68
2021/07/07 10:07:46;;;;;;;5.13;2.03;;;24.90;51.70;;;;;;5061337;28;20247;-67
2021/07/07 10:10:17;;;;;;;4.10;1.90;;;24.90;51.70;;;;;;5062064;28;20205;-66
2021/07/07 10:12:45;;;;;;;3.33;1.80;;;25.00;51.80;;;;;;5070985;28;20648;-64
2021/07/07 10:15:15;;;;;;;4.80;2.00;;;25.00;51.70;;;;;;5061684;28;20203;-66
2021/07/07 10:17:43;;;;;;;3.37;1.70;;;25.00;51.60;;;;;;5064197;28;20309;-66
2021/07/07 10:20:13;;;;;;;2.43;1.57;;;25.00;51.80;;;;;;5065187;28;20332;-68
2021/07/07 10:22:41;;;;;;;3.97;1.73;;;25.00;51.60;;;;;;5060325;28;20599;-65
2021/07/07 10:25:12;;;;;;;2.83;1.70;;;25.00;51.50;;;;;;5064873;28;20202;-65
2021/07/07 10:27:39;;;;;;;2.70;1.73;;;25.00;51.40;;;;;;5061822;28;20289;-65
2021/07/07 10:30:08;;;;;;;6.77;1.90;;;25.00;51.40;;;;;;5058586;28;20233;-65
2021/07/07 10:32:35;;;;;;;3.37;1.73;;;25.00;51.40;;;;;;5059510;28;20198;-65
2021/07/07 10:35:07;;;;;;;3.50;1.83;;;25.00;51.50;;;;;;5063251;28;20604;-65
2021/07/07 10:37:36;;;;;;;2.77;1.70;;;25.00;51.50;;;;;;5051330;28;20229;-65
2021/07/07 10:40:28;;;;;;;2.70;1.60;;;25.00;50.90;;;;;;5053247;28;20202;-64
2021/07/07 10:42:56;;;;;;;3.40;1.60;;;25.00;51.10;;;;;;5038211;28;20209;-65
2021/07/07 10:45:31;;;;;;;2.13;1.57;;;25.00;51.40;;;;;;5048806;28;20206;-66
2021/07/07 10:48:29;;;;;;;3.30;1.53;;;25.00;51.40;;;;;;5039703;28;20218;-67
2021/07/07 10:51:00;;;;;;;3.27;1.57;;;24.90;51.10;;;;;;5043145;28;20214;-65
2021/07/07 10:53:30;;;;;;;2.47;1.23;;;24.90;51.00;;;;;;5052009;28;20214;-65
2021/07/07 10:55:58;;;;;;;3.23;1.67;;;24.90;51.30;;;;;;5017101;28;20202;-67
2021/07/07 10:58:26;;;;;;;2.20;1.70;;;24.90;51.50;;;;;;5057229;28;20218;-67
2021/07/07 11:00:54;;;;;;;3.00;1.60;;;24.90;51.60;;;;;;5050274;28;20212;-65
2021/07/07 11:06:25;;;;;;;3.00;1.63;;;25.00;51.40;;;;;;5038000;28;20224;-65
2021/07/07 11:09:16;;;;;;;2.37;1.50;;;25.00;51.70;;;;;;5048155;28;20214;-66
2021/07/07 11:11:46;;;;;;;3.60;1.80;;;24.90;51.70;;;;;;5042598;28;20203;-65
2021/07/07 11:14:29;;;;;;;4.30;1.73;;;24.90;51.80;;;;;;5053341;28;20672;-65
2021/07/07 11:17:03;;;;;;;3.45;2.00;;;24.90;51.80;;;;;;5049270;28;20424;-66
2021/07/07 11:19:39;;;;;;;7.00;1.90;;;24.90;51.60;;;;;;5050832;28;20234;-68
2021/07/07 11:22:07;;;;;;;3.63;2.00;;;24.90;51.80;;;;;;5052626;28;20235;-66
2021/07/07 11:24:34;;;;;;;3.67;1.80;;;24.90;51.50;;;;;;5053520;28;20231;-65
2021/07/07 11:27:05;;;;;;;2.77;1.53;;;24.90;50.90;;;;;;5030899;28;20230;-67
2021/07/07 11:29:32;;;;;;;4.87;2.07;;;24.90;50.90;;;;;;5052168;28;20230;-67
2021/07/07 11:31:59;;;;;;;5.93;1.97;;;24.90;51.40;;;;;;5049074;28;20217;-66
2021/07/07 11:34:51;;;;;;;3.77;1.70;;;24.80;51.20;;;;;;5049596;28;20227;-66
2021/07/07 11:37:21;;;;;;;4.37;1.83;;;24.90;51.00;;;;;;5048495;28;20318;-66
2021/07/07 11:40:08;;;;;;;2.37;1.73;;;24.80;50.90;;;;;;5051908;28;20601;-65
2021/07/07 11:42:49;;;;;;;3.10;1.80;;;24.80;51.10;;;;;;5034361;28;20802;-65
2021/07/07 11:46:00;;;;;;;3.70;2.30;;;24.70;50.90;;;;;;5060528;28;20230;-65
2021/07/07 11:48:32;;;;;;;3.67;1.73;;;24.70;50.70;;;;;;5029692;28;20224;-66
2021/07/07 11:51:03;;;;;;;3.97;1.53;;;24.70;50.50;;;;;;5054971;28;20224;-66
2021/07/07 11:53:44;;;;;;;4.73;2.23;;;24.70;50.30;;;;;;5032751;28;20251;-66
2021/07/07 11:56:14;;;;;;;4.60;2.00;;;24.70;50.50;;;;;;5043907;28;20379;-66
2021/07/07 11:58:49;;;;;;;2.70;1.60;;;24.70;51.00;;;;;;5036393;28;20275;-66
2021/07/07 12:01:27;;;;;;;2.87;1.70;;;24.70;51.00;;;;;;5048450;28;20230;-67
2021/07/07 12:04:06;;;;;;;8.33;1.90;;;24.60;50.90;;;;;;5034726;28;20242;-68
2021/07/07 12:06:38;;;;;;;3.27;1.70;;;24.60;51.10;;;;;;5034224;28;20222;-66
2021/07/07 12:09:20;;;;;;;3.40;1.90;;;24.60;51.10;;;;;;5047792;28;20223;-66
2021/07/07 12:11:56;;;;;;;3.50;1.80;;;24.60;50.70;;;;;;5033007;28;20216;-65
2021/07/07 12:14:27;;;;;;;2.23;1.80;;;24.60;50.80;;;;;;5048525;28;20215;-65
2021/07/07 12:16:56;;;;;;;4.47;1.87;;;24.60;50.40;;;;;;5045801;28;20215;-66
2021/07/07 12:19:23;;;;;;;3.30;1.83;;;24.60;50.50;;;;;;5051239;28;20239;-67
2021/07/07 12:21:52;;;;;;;2.17;1.47;;;24.70;50.00;;;;;;5054647;28;20245;-67
2021/07/07 12:24:24;;;;;;;3.57;1.70;;;24.70;51.00;;;;;;5048743;28;20245;-67
2021/07/07 12:27:00;;;;;;;3.87;1.87;;;24.60;51.10;;;;;;5044066;28;20237;-67
2021/07/07 12:29:35;;;;;;;2.30;1.60;;;24.60;50.80;;;;;;5052361;28;20211;-67
2021/07/07 12:32:13;;;;;;;2.20;1.73;;;24.70;50.80;;;;;;5047032;28;20247;-66
2021/07/07 12:34:50;;;;;;;3.63;1.80;;;24.70;51.30;;;;;;5048595;28;20242;-66
2021/07/07 12:37:17;;;;;;;3.93;1.90;;;24.70;51.50;;;;;;5047711;28;20227;-66
2021/07/07 12:39:51;;;;;;;4.27;1.57;;;24.60;51.70;;;;;;5040811;28;20795;-66
2021/07/07 12:42:29;;;;;;;2.37;1.67;;;24.60;51.30;;;;;;5049403;28;20225;-66
2021/07/07 12:45:12;;;;;;;3.30;2.00;;;24.70;51.80;;;;;;5045896;28;20219;-66
2021/07/07 12:47:42;;;;;;;2.50;2.00;;;24.70;50.40;;;;;;5048133;28;20656;-65
2021/07/07 12:50:20;;;;;;;3.40;2.17;;;24.70;51.40;;;;;;5048384;28;20265;-66
2021/07/07 12:52:48;;;;;;;2.67;1.90;;;24.70;52.40;;;;;;5044400;28;20227;-66
2021/07/07 12:55:23;;;;;;;4.43;1.70;;;24.70;51.90;;;;;;5048582;28;20234;-63
2021/07/07 12:58:09;;;;;;;13.00;4.77;;;24.70;52.10;;;;;;5051889;28;20793;-64
2021/07/07 13:00:46;;;;;;;14.17;4.67;;;24.70;53.10;;;;;;5050933;28;20238;-67
2021/07/07 13:03:18;;;;;;;12.53;3.93;;;24.70;53.80;;;;;;5048251;28;20211;-67
2021/07/07 13:05:58;;;;;;;7.30;2.90;;;24.80;53.20;;;;;;5049282;28;20699;-67
2021/07/07 13:08:29;;;;;;;7.87;3.13;;;24.90;53.40;;;;;;5045356;28;20227;-68
2021/07/07 13:10:57;;;;;;;10.00;3.00;;;25.00;53.30;;;;;;5028387;28;20212;-67
2021/07/07 13:13:31;;;;;;;8.33;3.00;;;25.10;52.20;;;;;;5045647;28;20580;-68
2021/07/07 13:16:14;;;;;;;10.53;3.20;;;25.10;52.60;;;;;;5045927;28;20742;-68
2021/07/07 13:19:03;;;;;;;8.47;3.00;;;25.20;53.20;;;;;;5060961;28;20272;-69
2021/07/07 13:21:54;;;;;;;8.33;2.90;;;25.20;52.80;;;;;;5045934;28;20227;-69
2021/07/07 13:24:23;;;;;;;5.83;2.50;;;25.30;53.20;;;;;;5052656;28;20771;-67
2021/07/07 13:27:04;;;;;;;5.33;2.97;;;25.30;53.40;;;;;;5045084;28;20231;-69
2021/07/07 13:29:47;;;;;;;5.97;2.80;;;25.30;53.10;;;;;;5051444;28;20281;-69
2021/07/07 13:32:14;;;;;;;7.93;2.43;;;25.40;53.50;;;;;;5062689;28;20214;-68
2021/07/07 13:35:11;;;;;;;5.07;2.47;;;25.40;53.10;;;;;;5032944;28;20236;-68
2021/07/07 13:37:44;;;;;;;3.60;1.93;;;25.50;52.90;;;;;;5056059;28;20250;-67
2021/07/07 13:40:16;;;;;;;4.97;2.23;;;25.50;52.80;;;;;;5052454;28;20254;-68
2021/07/07 13:42:44;;;;;;;4.13;2.10;;;25.50;52.80;;;;;;5029895;28;20240;-68
2021/07/07 13:45:14;;;;;;;3.23;2.43;;;25.60;53.10;;;;;;5050941;28;20246;-69
2021/07/07 13:47:41;;;;;;;2.50;1.60;;;25.70;52.70;;;;;;5032170;28;20216;-68
2021/07/07 13:50:18;;;;;;;2.90;1.63;;;25.70;52.60;;;;;;5049803;28;20535;-70
2021/07/07 13:52:45;;;;;;;2.30;1.63;;;25.70;52.60;;;;;;5057347;28;20761;-68
2021/07/07 13:55:12;;;;;;;3.00;1.90;;;25.70;52.70;;;;;;5033217;28;20227;-68
2021/07/07 13:57:39;;;;;;;3.67;1.80;;;25.80;52.60;;;;;;5047006;28;20219;-67
2021/07/07 14:00:08;;;;;;;2.97;1.90;;;25.80;52.60;;;;;;5042506;28;20236;-68
2021/07/07 14:02:39;;;;;;;3.97;1.70;;;25.80;52.30;;;;;;5050629;28;20215;-68